Time;durP1;ratioP1;P1;durP2;ratioP2;P2;SDS_P1;SDS_P2;PMS_P1;PMS_P2;Temp;Humidity;BMP_temperature;BMP_pressure;BME280_temperature;BME280_humidity;BME280_pressure;Samples;Min_cycle;Max_cycle;Signal;HPM_P1;HPM_P2
2023/11/06 00:00:34;;;;;;;3.20;1.33;;;7.00;99.90;;;;;;5064615;28;20420;-59
2023/11/06 00:03:00;;;;;;;6.10;1.57;;;7.00;99.90;;;;;;5069292;28;20210;-57
2023/11/06 00:05:26;;;;;;;2.70;1.30;;;7.00;99.90;;;;;;5065410;28;20457;-57
2023/11/06 00:07:52;;;;;;;3.67;1.20;;;6.90;99.90;;;;;;5065702;28;20277;-57
2023/11/06 00:10:17;;;;;;;1.73;0.90;;;6.90;99.90;;;;;;5067130;28;20520;-59
2023/11/06 00:12:44;;;;;;;1.43;1.13;;;6.90;99.90;;;;;;5067067;28;20182;-57
2023/11/06 00:15:13;;;;;;;2.50;1.20;;;6.90;99.90;;;;;;5067695;28;20205;-56
2023/11/06 00:17:39;;;;;;;2.20;1.30;;;6.90;99.90;;;;;;5070840;28;20475;-57
2023/11/06 00:20:05;;;;;;;1.20;1.10;;;6.90;99.90;;;;;;5060914;28;20543;-57
2023/11/06 00:22:31;;;;;;;3.83;1.57;;;6.90;99.90;;;;;;5062675;28;20436;-59
2023/11/06 00:24:57;;;;;;;3.13;1.13;;;6.90;99.90;;;;;;5066727;28;20425;-57
2023/11/06 00:27:25;;;;;;;3.47;0.90;;;6.90;99.90;;;;;;5073390;28;20228;-58
2023/11/06 00:29:51;;;;;;;2.13;1.57;;;6.90;99.90;;;;;;5070482;28;20429;-59
2023/11/06 00:32:17;;;;;;;2.57;1.97;;;6.90;99.90;;;;;;5068559;28;20849;-58
2023/11/06 00:34:43;;;;;;;2.37;1.17;;;6.90;99.90;;;;;;5064753;28;20424;-58
2023/11/06 00:37:09;;;;;;;2.70;0.93;;;6.90;99.90;;;;;;5073909;28;20211;-59
2023/11/06 00:39:37;;;;;;;4.47;1.00;;;6.90;99.90;;;;;;5055524;28;20440;-58
2023/11/06 00:42:07;;;;;;;4.70;0.97;;;6.80;99.90;;;;;;5062803;28;20171;-58
2023/11/06 00:44:33;;;;;;;5.23;1.10;;;6.80;99.90;;;;;;5066855;28;20938;-58
2023/11/06 00:46:59;;;;;;;2.13;1.10;;;6.80;99.90;;;;;;5069609;28;20420;-58
2023/11/06 00:49:25;;;;;;;1.10;1.00;;;6.80;99.90;;;;;;5074662;28;20260;-57
2023/11/06 00:51:51;;;;;;;1.07;1.00;;;6.90;99.90;;;;;;5067657;28;20229;-57
2023/11/06 00:54:17;;;;;;;2.30;0.90;;;6.90;99.90;;;;;;5073498;28;20935;-58
2023/11/06 00:56:43;;;;;;;1.20;1.10;;;6.90;99.90;;;;;;5066268;28;20240;-57
2023/11/06 00:59:09;;;;;;;1.07;0.97;;;6.90;99.90;;;;;;5076703;28;20202;-57
2023/11/06 01:01:35;;;;;;;3.00;1.17;;;6.90;99.90;;;;;;5072964;28;20515;-57
2023/11/06 01:04:01;;;;;;;2.63;1.20;;;6.90;99.90;;;;;;5075256;28;20416;-57
2023/11/06 01:06:27;;;;;;;2.30;1.00;;;6.90;99.90;;;;;;5068991;28;20870;-58
2023/11/06 01:08:54;;;;;;;5.43;1.10;;;6.80;99.90;;;;;;5074760;28;20330;-58
2023/11/06 01:11:20;;;;;;;5.03;1.27;;;6.80;99.90;;;;;;5074805;28;20190;-56
2023/11/06 01:13:46;;;;;;;4.33;1.20;;;6.80;99.90;;;;;;5070577;28;20445;-60
2023/11/06 01:16:12;;;;;;;1.53;1.00;;;6.70;99.90;;;;;;5071772;28;20209;-57
2023/11/06 01:18:38;;;;;;;2.47;1.10;;;6.60;99.90;;;;;;5072636;28;20250;-57
2023/11/06 01:21:03;;;;;;;3.93;1.23;;;6.60;99.90;;;;;;5072573;28;20432;-57
2023/11/06 01:23:30;;;;;;;3.47;1.10;;;6.60;99.90;;;;;;5074480;28;20174;-57
2023/11/06 01:25:56;;;;;;;3.47;0.90;;;6.60;99.90;;;;;;5072033;28;20450;-60
2023/11/06 01:28:21;;;;;;;4.13;1.20;;;6.60;99.90;;;;;;5066347;28;22551;-57
2023/11/06 01:30:47;;;;;;;2.20;1.10;;;6.60;99.90;;;;;;5072144;28;20182;-58
2023/11/06 01:33:15;;;;;;;1.37;1.00;;;6.70;99.90;;;;;;5069331;28;20174;-57
2023/11/06 01:35:41;;;;;;;2.30;1.00;;;6.70;99.90;;;;;;5067718;28;20202;-58
2023/11/06 01:38:07;;;;;;;3.30;1.27;;;6.70;99.90;;;;;;5075939;28;20429;-57
2023/11/06 01:40:33;;;;;;;1.83;1.20;;;6.60;99.90;;;;;;5074264;28;20544;-57
2023/11/06 01:43:05;;;;;;;1.33;0.90;;;6.70;99.90;;;;;;5071069;28;20420;-58
2023/11/06 01:45:35;;;;;;;3.90;1.17;;;6.60;99.90;;;;;;5076610;28;20653;-58
2023/11/06 01:48:03;;;;;;;4.63;1.03;;;6.60;99.90;;;;;;5068577;28;20849;-60
2023/11/06 01:50:34;;;;;;;3.27;1.20;;;6.60;99.90;;;;;;5074232;28;20527;-57
2023/11/06 01:53:09;;;;;;;2.40;0.80;;;6.60;99.90;;;;;;5074146;28;20519;-58
2023/11/06 01:55:36;;;;;;;2.90;1.10;;;6.60;99.90;;;;;;5068362;28;20518;-60
2023/11/06 01:58:02;;;;;;;2.60;1.10;;;6.60;99.90;;;;;;5067227;28;20574;-58
2023/11/06 02:00:28;;;;;;;1.10;1.00;;;6.60;99.90;;;;;;5069422;28;20835;-58
2023/11/06 02:02:54;;;;;;;1.80;1.17;;;6.60;99.90;;;;;;5070574;28;20404;-58
2023/11/06 02:05:19;;;;;;;1.23;0.87;;;6.60;99.90;;;;;;5067846;28;21026;-60
2023/11/06 02:07:45;;;;;;;4.30;1.00;;;6.60;99.90;;;;;;5070614;28;20221;-58
2023/11/06 02:10:12;;;;;;;1.63;0.80;;;6.60;99.90;;;;;;5069969;28;20398;-57
2023/11/06 02:12:38;;;;;;;2.73;1.30;;;6.60;99.90;;;;;;5071804;28;20417;-58
2023/11/06 02:15:05;;;;;;;0.77;0.77;;;6.60;99.90;;;;;;5074592;28;20555;-58
2023/11/06 02:17:31;;;;;;;4.10;1.00;;;6.60;99.90;;;;;;5069325;28;20441;-55
2023/11/06 02:19:56;;;;;;;2.83;1.10;;;6.60;99.90;;;;;;5066877;28;20493;-58
2023/11/06 02:22:23;;;;;;;7.83;1.30;;;6.60;99.90;;;;;;5070922;28;20196;-59
2023/11/06 02:24:49;;;;;;;3.50;1.37;;;6.60;99.90;;;;;;5071272;28;20641;-59
2023/11/06 02:27:18;;;;;;;1.37;1.20;;;6.70;99.90;;;;;;5068145;28;20944;-58
2023/11/06 02:29:46;;;;;;;2.60;1.20;;;6.70;99.90;;;;;;5071086;28;20424;-59
2023/11/06 02:32:11;;;;;;;2.60;1.10;;;6.70;99.90;;;;;;5075462;28;20400;-58
2023/11/06 02:34:38;;;;;;;1.43;1.10;;;6.70;99.90;;;;;;5069014;28;20499;-58
2023/11/06 02:37:10;;;;;;;2.70;1.50;;;6.70;99.90;;;;;;5072615;28;20213;-58
2023/11/06 02:39:37;;;;;;;1.93;1.13;;;6.70;99.90;;;;;;5067275;28;20477;-59
2023/11/06 02:42:03;;;;;;;3.27;1.10;;;6.70;99.90;;;;;;5069658;28;20439;-60
2023/11/06 02:44:29;;;;;;;1.83;1.17;;;6.70;99.90;;;;;;5064351;28;20491;-59
2023/11/06 02:46:55;;;;;;;3.57;1.40;;;6.70;99.90;;;;;;5063872;28;20429;-58
2023/11/06 02:49:22;;;;;;;3.33;1.10;;;6.70;99.90;;;;;;5073525;28;20659;-59
2023/11/06 02:51:48;;;;;;;2.63;1.17;;;6.70;99.90;;;;;;5077559;28;20439;-58
2023/11/06 02:54:13;;;;;;;6.10;1.33;;;6.70;99.90;;;;;;5076178;28;20494;-58
2023/11/06 02:56:40;;;;;;;3.53;1.30;;;6.70;99.90;;;;;;5066520;28;20203;-59
2023/11/06 02:59:07;;;;;;;3.70;1.23;;;6.70;99.90;;;;;;5066281;28;20229;-60
2023/11/06 03:01:34;;;;;;;3.97;1.27;;;6.70;99.90;;;;;;5068827;28;20933;-58
2023/11/06 03:04:00;;;;;;;5.90;1.20;;;6.70;99.90;;;;;;5070542;28;20435;-59
2023/11/06 03:06:30;;;;;;;6.10;1.40;;;6.80;99.90;;;;;;5074961;28;20981;-59
2023/11/06 03:08:56;;;;;;;2.40;1.30;;;6.80;99.90;;;;;;5068700;28;20909;-60
2023/11/06 03:11:23;;;;;;;1.43;1.20;;;6.80;99.90;;;;;;5072213;28;21082;-58
2023/11/06 03:13:49;;;;;;;1.77;1.53;;;6.80;99.90;;;;;;5062865;28;20598;-58
2023/11/06 03:16:18;;;;;;;6.50;1.30;;;6.80;99.90;;;;;;5064734;28;21096;-59
2023/11/06 03:18:44;;;;;;;1.50;1.30;;;6.80;99.90;;;;;;5066938;28;21115;-59
2023/11/06 03:21:10;;;;;;;4.47;1.33;;;6.80;99.90;;;;;;5069721;28;20507;-58
2023/11/06 03:23:36;;;;;;;4.57;1.30;;;6.80;99.90;;;;;;5068183;28;20790;-58
2023/11/06 03:26:03;;;;;;;5.37;1.30;;;6.80;99.90;;;;;;5069908;28;20482;-57
2023/11/06 03:28:29;;;;;;;5.27;1.10;;;6.80;99.90;;;;;;5074181;28;20448;-58
2023/11/06 03:30:54;;;;;;;3.80;1.43;;;6.80;99.90;;;;;;5066333;28;20404;-58
2023/11/06 03:33:20;;;;;;;2.87;1.40;;;6.80;99.90;;;;;;5071628;28;20418;-58
2023/11/06 03:35:45;;;;;;;2.13;1.13;;;6.80;99.90;;;;;;5066487;28;20233;-57
2023/11/06 03:38:11;;;;;;;2.97;1.43;;;6.90;99.90;;;;;;5071625;28;20203;-58
2023/11/06 03:40:37;;;;;;;8.63;1.50;;;6.90;99.90;;;;;;5072863;28;20167;-57
2023/11/06 03:43:02;;;;;;;4.67;1.40;;;6.90;99.90;;;;;;5073046;28;20231;-59
2023/11/06 03:45:28;;;;;;;4.33;1.40;;;6.90;99.90;;;;;;5070470;28;20185;-59
2023/11/06 03:47:54;;;;;;;9.23;1.87;;;6.90;99.90;;;;;;5066583;28;20198;-59
2023/11/06 03:50:20;;;;;;;1.63;1.20;;;7.00;99.90;;;;;;5068332;28;20193;-58
2023/11/06 03:52:45;;;;;;;3.47;1.30;;;7.00;99.90;;;;;;5068637;28;20825;-58
2023/11/06 03:55:13;;;;;;;1.20;1.10;;;7.00;99.90;;;;;;5070853;28;20233;-59
2023/11/06 03:57:39;;;;;;;3.80;1.70;;;7.00;99.90;;;;;;5067009;28;20194;-58
2023/11/06 04:00:06;;;;;;;5.10;1.60;;;7.00;99.90;;;;;;5068686;28;20447;-58
2023/11/06 04:02:32;;;;;;;3.23;1.47;;;7.10;99.90;;;;;;5067882;28;20633;-58
2023/11/06 04:04:58;;;;;;;2.83;1.13;;;7.10;99.90;;;;;;5062347;28;20421;-59
2023/11/06 04:07:23;;;;;;;1.80;1.20;;;7.10;99.90;;;;;;5062351;28;20613;-59
2023/11/06 04:09:49;;;;;;;9.97;1.40;;;7.10;99.90;;;;;;5069940;28;20170;-59
2023/11/06 04:12:14;;;;;;;7.27;1.30;;;7.10;99.90;;;;;;5073945;28;20174;-58
2023/11/06 04:14:40;;;;;;;4.97;1.50;;;7.10;99.90;;;;;;5062506;28;20266;-59
2023/11/06 04:17:06;;;;;;;2.93;1.30;;;7.10;99.90;;;;;;5068234;28;20217;-59
2023/11/06 04:19:31;;;;;;;6.60;1.50;;;7.10;99.90;;;;;;5067130;28;20617;-60
2023/11/06 04:21:57;;;;;;;2.43;1.00;;;7.10;99.90;;;;;;5068818;28;20254;-57
2023/11/06 04:24:22;;;;;;;4.57;1.70;;;7.10;99.90;;;;;;5070913;28;20193;-59
2023/11/06 04:26:48;;;;;;;3.57;1.30;;;7.10;99.90;;;;;;5078283;28;20205;-57
2023/11/06 04:29:14;;;;;;;2.73;1.37;;;7.10;99.90;;;;;;5076190;28;20290;-57
2023/11/06 04:31:40;;;;;;;2.53;1.47;;;7.10;99.90;;;;;;5072320;28;20170;-57
2023/11/06 04:34:06;;;;;;;4.10;1.33;;;7.10;99.90;;;;;;5070110;28;20587;-57
2023/11/06 04:36:31;;;;;;;4.37;1.30;;;7.10;99.90;;;;;;5078641;28;20558;-57
2023/11/06 04:38:57;;;;;;;6.10;1.57;;;7.10;99.90;;;;;;5074424;28;20204;-57
2023/11/06 04:41:22;;;;;;;2.13;1.40;;;7.10;99.90;;;;;;5074016;28;20480;-58
2023/11/06 04:43:48;;;;;;;2.03;1.60;;;7.10;99.90;;;;;;5074466;28;20174;-58
2023/11/06 04:46:14;;;;;;;2.90;1.40;;;7.10;99.90;;;;;;5073394;28;20182;-57
2023/11/06 04:48:39;;;;;;;1.40;1.30;;;7.10;99.90;;;;;;5067130;28;20198;-57
2023/11/06 04:51:05;;;;;;;4.63;1.47;;;7.10;99.90;;;;;;5073710;28;20206;-58
2023/11/06 04:53:31;;;;;;;4.27;2.77;;;7.10;99.90;;;;;;5069733;28;20178;-59
2023/11/06 04:55:57;;;;;;;4.83;2.17;;;7.10;99.90;;;;;;5067149;28;20452;-60
2023/11/06 04:58:25;;;;;;;4.50;1.57;;;7.10;99.90;;;;;;5072775;28;20439;-58
2023/11/06 05:00:51;;;;;;;5.40;1.90;;;7.10;99.90;;;;;;5068386;28;20198;-57
2023/11/06 05:03:17;;;;;;;8.20;1.87;;;7.10;99.90;;;;;;5068104;28;20456;-56
2023/11/06 05:05:42;;;;;;;2.93;1.40;;;7.10;99.90;;;;;;5072433;28;20198;-56
2023/11/06 05:08:10;;;;;;;1.83;1.30;;;7.10;99.90;;;;;;5057840;28;20305;-58
2023/11/06 05:10:36;;;;;;;4.43;1.57;;;7.10;99.90;;;;;;5053986;28;20190;-58
2023/11/06 05:13:01;;;;;;;3.47;1.60;;;7.10;99.90;;;;;;5057756;28;20456;-58
2023/11/06 05:15:27;;;;;;;2.30;1.67;;;7.10;99.90;;;;;;5069078;28;20202;-58
2023/11/06 05:17:52;;;;;;;6.70;2.07;;;7.10;99.90;;;;;;5072243;28;20199;-56
2023/11/06 05:20:20;;;;;;;4.43;2.20;;;7.00;99.90;;;;;;5061122;28;20293;-56
2023/11/06 05:22:46;;;;;;;1.80;1.70;;;7.00;99.90;;;;;;5062399;28;20747;-58
2023/11/06 05:25:11;;;;;;;4.37;1.53;;;7.00;99.90;;;;;;5061735;28;20456;-59
2023/11/06 05:27:37;;;;;;;2.50;2.17;;;6.90;99.90;;;;;;5065298;28;20209;-57
2023/11/06 05:30:04;;;;;;;4.37;1.60;;;6.90;99.90;;;;;;5064516;28;20182;-55
2023/11/06 05:32:31;;;;;;;6.13;2.43;;;6.90;99.90;;;;;;5064528;28;20178;-56
2023/11/06 05:34:57;;;;;;;2.03;1.50;;;6.80;99.90;;;;;;5050209;28;20479;-56
2023/11/06 05:37:27;;;;;;;3.13;1.60;;;6.80;99.90;;;;;;5061343;28;20447;-56
2023/11/06 05:39:53;;;;;;;3.33;1.40;;;6.80;99.90;;;;;;5062361;28;20968;-56
2023/11/06 05:42:19;;;;;;;2.60;1.13;;;6.80;99.90;;;;;;5067873;28;20896;-56
2023/11/06 05:44:44;;;;;;;8.90;1.50;;;6.80;99.90;;;;;;5061972;28;20452;-57
2023/11/06 05:47:10;;;;;;;3.63;1.57;;;6.80;99.90;;;;;;5060710;28;20174;-56
2023/11/06 05:49:37;;;;;;;4.60;1.57;;;6.80;99.90;;;;;;5078713;28;20622;-55
2023/11/06 05:52:04;;;;;;;2.17;1.20;;;6.80;99.90;;;;;;5064983;28;20196;-56
2023/11/06 05:54:30;;;;;;;2.80;1.50;;;6.80;99.90;;;;;;5068654;28;20496;-57
2023/11/06 05:56:56;;;;;;;3.30;1.40;;;6.80;99.90;;;;;;5064574;28;20675;-57
2023/11/06 05:59:21;;;;;;;1.80;1.33;;;6.80;99.90;;;;;;5066094;28;20228;-56
2023/11/06 06:01:47;;;;;;;6.10;2.40;;;6.80;99.90;;;;;;5055551;28;20763;-57
2023/11/06 06:04:13;;;;;;;5.97;2.53;;;6.90;99.90;;;;;;5059462;28;20658;-54
2023/11/06 06:06:39;;;;;;;5.30;2.00;;;6.90;99.90;;;;;;5068629;28;20516;-58
2023/11/06 06:09:04;;;;;;;3.70;2.33;;;6.90;99.90;;;;;;5058442;28;20206;-56
2023/11/06 06:11:36;;;;;;;2.80;1.80;;;6.90;99.90;;;;;;5063270;28;20198;-56
2023/11/06 06:14:02;;;;;;;8.57;4.90;;;6.90;99.90;;;;;;5060488;28;20171;-56
2023/11/06 06:16:28;;;;;;;4.93;3.20;;;6.90;99.90;;;;;;5063587;28;20464;-56
2023/11/06 06:18:54;;;;;;;9.23;1.60;;;6.90;99.90;;;;;;5067123;28;20946;-56
2023/11/06 06:21:20;;;;;;;2.90;1.33;;;6.90;99.90;;;;;;5071287;28;20293;-56
2023/11/06 06:23:45;;;;;;;6.73;1.60;;;6.90;99.90;;;;;;5069494;28;20592;-56
2023/11/06 06:26:11;;;;;;;4.40;1.70;;;6.90;99.90;;;;;;5071278;28;20424;-56
2023/11/06 06:28:37;;;;;;;2.00;1.60;;;6.90;99.90;;;;;;5069976;28;20205;-56
2023/11/06 06:31:02;;;;;;;9.83;2.23;;;6.90;99.90;;;;;;5066949;28;20186;-56
2023/11/06 06:33:28;;;;;;;2.53;1.87;;;6.90;99.90;;;;;;5070434;28;20169;-56
2023/11/06 06:35:54;;;;;;;3.57;1.90;;;6.90;99.90;;;;;;5067730;28;20186;-56
2023/11/06 06:38:20;;;;;;;3.20;2.13;;;6.90;99.90;;;;;;5061757;28;20738;-56
2023/11/06 06:40:49;;;;;;;5.17;2.77;;;6.90;99.90;;;;;;5066699;28;20689;-54
2023/11/06 06:43:17;;;;;;;6.50;2.87;;;6.90;99.90;;;;;;5071008;28;20424;-56
2023/11/06 06:45:43;;;;;;;4.00;2.03;;;6.90;99.90;;;;;;5067884;28;20471;-56
2023/11/06 06:48:09;;;;;;;4.33;2.07;;;6.90;99.90;;;;;;5067987;28;20546;-56
2023/11/06 06:50:34;;;;;;;1.70;1.60;;;6.90;99.90;;;;;;5066981;28;20194;-56
2023/11/06 06:53:00;;;;;;;4.57;1.97;;;6.90;99.90;;;;;;5067707;28;20185;-57
2023/11/06 06:55:26;;;;;;;2.90;1.90;;;6.90;99.90;;;;;;5066967;28;20221;-56
2023/11/06 06:57:55;;;;;;;3.77;2.20;;;6.90;99.90;;;;;;5064369;28;20464;-55
2023/11/06 07:00:21;;;;;;;3.90;2.23;;;6.90;99.90;;;;;;5064340;28;20242;-56
2023/11/06 07:02:46;;;;;;;2.60;2.40;;;6.90;99.90;;;;;;5056071;28;20813;-55
2023/11/06 07:05:12;;;;;;;7.33;2.43;;;6.90;99.90;;;;;;5068177;28;20413;-55
2023/11/06 07:07:38;;;;;;;2.60;1.50;;;6.80;99.90;;;;;;5066970;28;20186;-56
2023/11/06 07:10:04;;;;;;;6.20;2.90;;;6.80;99.90;;;;;;5064550;28;20230;-54
2023/11/06 07:12:29;;;;;;;6.80;3.60;;;6.80;99.90;;;;;;5057573;28;20179;-56
2023/11/06 07:14:55;;;;;;;6.27;3.10;;;6.80;99.90;;;;;;5057893;28;20456;-58
2023/11/06 07:17:20;;;;;;;6.83;2.63;;;6.80;99.90;;;;;;5075428;28;20256;-56
2023/11/06 07:19:46;;;;;;;4.30;2.80;;;6.90;99.90;;;;;;5065730;28;20191;-57
2023/11/06 07:22:12;;;;;;;4.97;2.67;;;6.90;99.90;;;;;;5065174;28;20262;-56
2023/11/06 07:24:37;;;;;;;4.77;2.70;;;7.00;99.90;;;;;;5056130;28;20182;-57
2023/11/06 07:27:03;;;;;;;6.07;2.57;;;7.00;99.90;;;;;;5067278;28;20190;-54
2023/11/06 07:29:29;;;;;;;10.17;3.90;;;7.10;99.90;;;;;;5061461;28;20662;-56
2023/11/06 07:31:55;;;;;;;1.80;1.70;;;7.10;99.90;;;;;;5064592;28;20453;-57
2023/11/06 07:34:21;;;;;;;1.70;1.40;;;7.20;99.90;;;;;;5063893;28;20856;-56
2023/11/06 07:36:47;;;;;;;3.23;1.50;;;7.20;99.90;;;;;;5066953;28;20194;-56
2023/11/06 07:39:14;;;;;;;5.07;1.70;;;7.30;99.90;;;;;;5065730;28;20509;-57
2023/11/06 07:41:41;;;;;;;1.43;1.23;;;7.40;99.90;;;;;;5063672;28;20432;-58
2023/11/06 07:44:08;;;;;;;4.03;1.53;;;7.50;99.90;;;;;;5057747;28;21160;-55
2023/11/06 07:46:33;;;;;;;3.60;1.73;;;7.50;99.90;;;;;;5068963;28;21703;-56
2023/11/06 07:48:59;;;;;;;3.90;2.20;;;7.50;99.90;;;;;;5067677;28;20475;-56
2023/11/06 07:51:25;;;;;;;2.90;1.87;;;7.50;99.90;;;;;;5062958;28;20496;-56
2023/11/06 07:53:50;;;;;;;3.77;1.80;;;7.50;99.90;;;;;;5062923;28;20167;-57
2023/11/06 07:56:18;;;;;;;4.00;2.13;;;7.50;99.90;;;;;;5068528;28;20634;-56
2023/11/06 07:58:44;;;;;;;6.63;3.07;;;7.50;99.90;;;;;;5070301;28;20202;-57
2023/11/06 08:01:10;;;;;;;8.23;2.53;;;7.60;99.90;;;;;;5062119;28;20439;-57
2023/11/06 08:03:36;;;;;;;8.50;2.87;;;7.60;99.90;;;;;;5065277;28;20420;-58
2023/11/06 08:06:02;;;;;;;2.57;1.87;;;7.60;99.90;;;;;;5063364;28;20261;-56
2023/11/06 08:08:28;;;;;;;2.20;1.40;;;7.70;99.90;;;;;;5067950;28;20232;-57
2023/11/06 08:10:53;;;;;;;4.13;1.40;;;7.70;99.90;;;;;;5064861;28;20468;-57
2023/11/06 08:13:19;;;;;;;2.03;1.60;;;7.70;99.90;;;;;;5067289;28;20236;-58
2023/11/06 08:15:45;;;;;;;4.20;1.70;;;7.80;99.90;;;;;;5068532;28;20195;-57
2023/11/06 08:18:10;;;;;;;1.57;1.47;;;7.90;99.90;;;;;;5056113;28;20194;-57
2023/11/06 08:20:36;;;;;;;3.43;1.30;;;7.90;99.90;;;;;;5053266;28;20170;-57
2023/11/06 08:23:02;;;;;;;1.57;1.47;;;8.00;99.90;;;;;;5065644;28;20180;-57
2023/11/06 08:25:28;;;;;;;2.23;1.30;;;8.10;99.90;;;;;;5064036;28;20428;-55
2023/11/06 08:27:54;;;;;;;5.37;2.10;;;8.20;99.90;;;;;;5059989;28;20775;-58
2023/11/06 08:30:20;;;;;;;3.13;1.30;;;8.30;99.90;;;;;;5059635;28;21354;-57
2023/11/06 08:32:45;;;;;;;12.63;1.40;;;8.30;99.90;;;;;;5064412;28;20493;-57
2023/11/06 08:35:11;;;;;;;2.60;1.30;;;8.30;99.90;;;;;;5067748;28;20182;-57
2023/11/06 08:37:36;;;;;;;1.33;1.00;;;8.40;99.90;;;;;;5065851;28;20186;-58
2023/11/06 08:40:03;;;;;;;3.90;1.10;;;8.50;99.90;;;;;;5062506;28;20174;-58
2023/11/06 08:42:29;;;;;;;2.60;1.27;;;8.50;99.90;;;;;;5062143;28;20233;-59
2023/11/06 08:44:54;;;;;;;3.60;0.90;;;8.60;99.90;;;;;;5062807;28;20408;-58
2023/11/06 08:47:20;;;;;;;9.23;1.10;;;8.70;99.90;;;;;;5060139;28;20197;-58
2023/11/06 08:49:46;;;;;;;2.10;1.10;;;8.70;99.90;;;;;;5064805;28;20175;-57
2023/11/06 08:52:12;;;;;;;3.57;1.17;;;8.80;99.90;;;;;;5063663;28;20657;-57
2023/11/06 08:54:40;;;;;;;4.73;1.20;;;8.90;99.90;;;;;;5061015;28;20687;-57
2023/11/06 08:57:07;;;;;;;1.27;1.17;;;8.90;99.90;;;;;;5065185;28;20456;-57
2023/11/06 08:59:33;;;;;;;1.23;0.90;;;9.00;99.90;;;;;;5067896;28;20502;-57
2023/11/06 09:01:58;;;;;;;3.27;1.00;;;9.10;99.90;;;;;;5067189;28;20888;-57
2023/11/06 09:04:24;;;;;;;2.37;0.93;;;9.20;99.90;;;;;;5061480;28;20236;-57
2023/11/06 09:06:49;;;;;;;5.27;1.20;;;9.30;99.90;;;;;;5064662;28;20602;-56
2023/11/06 09:09:15;;;;;;;3.13;0.93;;;9.30;99.90;;;;;;5065479;28;20251;-57
2023/11/06 09:11:42;;;;;;;1.33;0.97;;;9.40;99.90;;;;;;5073006;28;20598;-58
2023/11/06 09:14:08;;;;;;;1.43;0.90;;;9.40;99.90;;;;;;5065534;28;20175;-57
2023/11/06 09:16:35;;;;;;;1.37;0.80;;;9.40;99.90;;;;;;5066149;28;20460;-58
2023/11/06 09:19:01;;;;;;;2.10;1.00;;;9.50;99.90;;;;;;5059619;28;20645;-56
2023/11/06 09:21:27;;;;;;;1.47;0.90;;;9.60;99.90;;;;;;5065696;28;20423;-58
2023/11/06 09:23:53;;;;;;;1.53;1.00;;;9.70;99.90;;;;;;5068333;28;20523;-57
2023/11/06 09:26:19;;;;;;;1.70;0.90;;;9.90;99.90;;;;;;5065689;28;21088;-57
2023/11/06 09:28:45;;;;;;;6.30;1.20;;;10.00;99.90;;;;;;5065941;28;20285;-56
2023/11/06 09:31:12;;;;;;;1.07;0.87;;;10.10;99.90;;;;;;5067000;28;21130;-58
2023/11/06 09:33:38;;;;;;;1.70;1.10;;;10.30;99.90;;;;;;5067976;28;20440;-57
2023/11/06 09:36:06;;;;;;;0.97;0.90;;;10.30;99.90;;;;;;5069603;28;20460;-59
2023/11/06 09:38:33;;;;;;;3.60;1.00;;;10.40;99.90;;;;;;5067339;28;20190;-56
2023/11/06 09:40:59;;;;;;;1.23;0.90;;;10.50;99.90;;;;;;5067656;28;20524;-55
2023/11/06 09:43:24;;;;;;;1.83;1.00;;;10.50;99.90;;;;;;5074511;28;20486;-56
2023/11/06 09:45:51;;;;;;;0.80;0.80;;;10.60;99.90;;;;;;5065684;28;21364;-56
2023/11/06 09:48:18;;;;;;;4.00;1.30;;;10.60;99.90;;;;;;5066280;28;20670;-55
2023/11/06 09:50:48;;;;;;;0.93;0.83;;;10.70;99.90;;;;;;5064767;28;20482;-56
2023/11/06 09:53:15;;;;;;;3.07;0.90;;;10.70;99.90;;;;;;5072064;28;21024;-54
2023/11/06 09:55:41;;;;;;;0.80;0.80;;;10.60;99.90;;;;;;5069553;28;20452;-56
2023/11/06 09:58:10;;;;;;;0.80;0.80;;;10.60;99.90;;;;;;5064049;28;20596;-54
2023/11/06 10:00:35;;;;;;;1.43;0.80;;;10.60;99.90;;;;;;5064672;28;20501;-56
2023/11/06 10:03:01;;;;;;;3.80;1.27;;;10.60;99.90;;;;;;5065629;28;20429;-56
2023/11/06 10:05:27;;;;;;;1.93;1.03;;;10.70;99.90;;;;;;5066774;28;20174;-56
2023/11/06 10:07:54;;;;;;;1.53;1.00;;;10.70;99.90;;;;;;5060042;28;20728;-56
2023/11/06 10:10:24;;;;;;;7.10;0.80;;;10.70;99.90;;;;;;5064075;28;20186;-57
2023/11/06 10:13:12;;;;;;;1.53;0.90;;;10.70;99.90;;;;;;5058304;28;20833;-57
2023/11/06 10:15:38;;;;;;;4.17;0.90;;;10.80;99.90;;;;;;5053866;28;20843;-55
2023/11/06 10:18:13;;;;;;;3.60;1.20;;;10.80;99.90;;;;;;5069598;28;20452;-56
2023/11/06 10:20:45;;;;;;;1.83;1.00;;;10.90;99.90;;;;;;5066131;28;20440;-58
2023/11/06 10:23:11;;;;;;;2.40;0.67;;;10.90;99.90;;;;;;5063703;28;20420;-57
2023/11/06 10:25:37;;;;;;;0.77;0.77;;;11.00;99.90;;;;;;5066227;28;20424;-57
2023/11/06 10:28:19;;;;;;;1.00;0.90;;;10.90;99.90;;;;;;5068187;28;20472;-57
2023/11/06 10:30:49;;;;;;;2.87;0.83;;;11.00;99.90;;;;;;5065047;28;20496;-57
2023/11/06 10:33:15;;;;;;;2.10;0.90;;;11.00;99.90;;;;;;5065122;28;20452;-58
2023/11/06 10:35:41;;;;;;;7.13;1.30;;;11.10;99.90;;;;;;5063831;28;20452;-57
2023/11/06 10:38:07;;;;;;;1.53;0.90;;;11.00;99.90;;;;;;5064666;28;20444;-57
2023/11/06 10:40:34;;;;;;;2.17;1.07;;;10.90;99.90;;;;;;5061704;28;20171;-57
2023/11/06 10:43:03;;;;;;;2.07;1.53;;;10.70;99.90;;;;;;5067628;28;20197;-57
2023/11/06 10:45:32;;;;;;;0.90;0.90;;;10.60;99.90;;;;;;5064842;28;20424;-57
2023/11/06 10:48:09;;;;;;;1.50;0.80;;;10.50;99.90;;;;;;5070291;28;20457;-57
2023/11/06 10:50:37;;;;;;;1.80;1.10;;;10.50;99.90;;;;;;5064850;28;20402;-57
2023/11/06 10:53:06;;;;;;;2.13;1.40;;;10.40;99.90;;;;;;5065587;28;20441;-58
2023/11/06 10:55:33;;;;;;;2.10;1.30;;;10.40;99.90;;;;;;5067532;28;20547;-54
2023/11/06 10:58:00;;;;;;;2.77;1.20;;;10.50;99.90;;;;;;5062918;28;20472;-54
2023/11/06 11:00:26;;;;;;;2.77;1.17;;;10.80;99.90;;;;;;5068383;28;20416;-55
2023/11/06 11:02:56;;;;;;;10.30;1.10;;;11.00;99.90;;;;;;5070097;28;20462;-54
2023/11/06 11:05:29;;;;;;;1.00;0.90;;;11.20;96.40;;;;;;5068521;28;20424;-58
2023/11/06 11:07:57;;;;;;;0.80;0.80;;;11.20;94.90;;;;;;5063497;28;20559;-57
2023/11/06 11:10:27;;;;;;;1.53;1.00;;;11.10;97.20;;;;;;5064491;28;20430;-53
2023/11/06 11:12:57;;;;;;;1.03;0.87;;;11.10;97.60;;;;;;5071325;28;20499;-54
2023/11/06 11:15:26;;;;;;;1.57;1.07;;;11.00;99.20;;;;;;5067132;28;20431;-54
2023/11/06 11:18:05;;;;;;;1.10;1.00;;;11.00;99.90;;;;;;5068059;28;20429;-52
2023/11/06 11:20:57;;;;;;;4.73;0.90;;;11.00;99.30;;;;;;5069799;28;20403;-54
2023/11/06 11:23:39;;;;;;;0.80;0.80;;;11.10;97.90;;;;;;5067407;28;20428;-53
2023/11/06 11:26:06;;;;;;;3.93;0.90;;;11.10;99.90;;;;;;5065403;28;20439;-58
2023/11/06 11:28:55;;;;;;;3.50;0.93;;;11.20;99.90;;;;;;5076922;22;20493;-59
2023/11/06 11:31:30;;;;;;;4.90;1.50;;;11.20;99.90;;;;;;5026085;28;20727;-60
2023/11/06 11:33:56;;;;;;;2.07;1.00;;;11.40;99.90;;;;;;5020307;28;20456;-60
2023/11/06 11:36:33;;;;;;;1.20;1.10;;;11.70;99.90;;;;;;5024499;28;20462;-60
2023/11/06 11:39:13;;;;;;;5.50;1.20;;;12.00;96.50;;;;;;5024346;28;20211;-60
2023/11/06 11:41:59;;;;;;;1.43;0.90;;;12.20;94.30;;;;;;5027307;28;20425;-60
2023/11/06 11:44:25;;;;;;;4.63;1.10;;;12.20;94.60;;;;;;5035162;28;20441;-60
2023/11/06 11:46:50;;;;;;;3.27;1.10;;;12.10;95.90;;;;;;5023974;28;20968;-60
2023/11/06 11:49:39;;;;;;;1.63;1.00;;;11.90;97.40;;;;;;5024062;28;20449;-60
2023/11/06 11:52:05;;;;;;;3.40;1.73;;;11.80;97.50;;;;;;5023226;28;20234;-61
2023/11/06 11:54:33;;;;;;;2.87;1.37;;;11.60;98.80;;;;;;5023108;28;20941;-60
2023/11/06 11:57:02;;;;;;;2.00;1.20;;;11.50;99.90;;;;;;5022281;28;20506;-60
2023/11/06 11:59:30;;;;;;;1.83;1.20;;;11.40;99.90;;;;;;5024414;28;20545;-61
2023/11/06 12:01:57;;;;;;;1.90;1.10;;;11.30;99.90;;;;;;5018097;28;20557;-61
2023/11/06 12:04:24;;;;;;;1.70;1.20;;;11.20;99.90;;;;;;5018607;28;20888;-61
2023/11/06 12:06:58;;;;;;;2.70;1.00;;;11.10;99.90;;;;;;5024851;28;20512;-62
2023/11/06 12:09:24;;;;;;;1.10;1.00;;;11.00;99.90;;;;;;5021951;28;20516;-60
2023/11/06 12:11:50;;;;;;;6.00;2.63;;;10.90;99.90;;;;;;5016557;28;20534;-61
2023/11/06 12:14:16;;;;;;;2.77;1.30;;;10.90;99.90;;;;;;5019666;28;20175;-60
2023/11/06 12:16:57;;;;;;;1.80;1.13;;;10.90;99.90;;;;;;5019592;28;20192;-61
2023/11/06 12:19:22;;;;;;;1.13;0.90;;;10.90;99.90;;;;;;5026096;28;20191;-60
2023/11/06 12:22:00;;;;;;;1.00;1.00;;;10.90;99.90;;;;;;5025227;28;20496;-61
2023/11/06 12:24:26;;;;;;;4.43;1.30;;;10.90;99.90;;;;;;5013665;28;20260;-58
2023/11/06 12:26:53;;;;;;;2.30;0.80;;;10.80;99.90;;;;;;5022008;28;20996;-58
2023/11/06 12:29:29;;;;;;;2.87;1.27;;;10.80;99.90;;;;;;5023456;28;20469;-59
2023/11/06 12:31:57;;;;;;;2.30;1.20;;;10.80;99.90;;;;;;5034379;28;20437;-60
2023/11/06 12:34:24;;;;;;;2.73;1.03;;;10.80;99.90;;;;;;5020418;28;20430;-60
2023/11/06 12:37:06;;;;;;;2.17;1.10;;;10.70;99.90;;;;;;5023530;28;20464;-61
2023/11/06 12:39:36;;;;;;;1.20;1.10;;;10.80;99.90;;;;;;5024351;28;21137;-61
2023/11/06 12:42:03;;;;;;;1.83;1.20;;;10.90;99.90;;;;;;5041302;28;20535;-60
2023/11/06 12:44:38;;;;;;;3.60;1.47;;;11.00;99.90;;;;;;5023228;28;20637;-60
2023/11/06 12:47:09;;;;;;;2.80;1.37;;;11.20;99.90;;;;;;5021420;28;20477;-61
2023/11/06 12:49:48;;;;;;;2.00;1.10;;;11.30;99.90;;;;;;5013832;28;20458;-60
2023/11/06 12:52:19;;;;;;;1.63;1.10;;;11.40;99.90;;;;;;5025713;28;20466;-61
2023/11/06 12:54:48;;;;;;;2.47;1.20;;;11.40;99.90;;;;;;5023400;28;20461;-61